Time;durP1;ratioP1;P1;durP2;ratioP2;P2;SDS_P1;SDS_P2;PMS_P1;PMS_P2;Temp;Humidity;BMP_temperature;BMP_pressure;BME280_temperature;BME280_humidity;BME280_pressure;Samples;Min_cycle;Max_cycle;Signal;HPM_P1;HPM_P2
2022/06/19 00:00:37;;;;;;;;;;;21.70;73.90;;;;;;5135602;27;19944;-96
2022/06/19 00:03:04;;;;;;;;;;;21.70;74.20;;;;;;5136165;27;20380;-96
2022/06/19 00:05:30;;;;;;;;;;;21.70;73.80;;;;;;5117404;27;19941;-96
2022/06/19 00:07:56;;;;;;;;;;;21.70;74.50;;;;;;5135801;27;19941;-96
2022/06/19 00:10:21;;;;;;;;;;;21.60;76.20;;;;;;5135519;27;19978;-96
2022/06/19 00:12:47;;;;;;;;;;;21.50;76.90;;;;;;5135942;27;20296;-96
2022/06/19 00:15:13;;;;;;;;;;;21.40;77.70;;;;;;5135670;27;19991;-96
2022/06/19 00:17:38;;;;;;;;;;;21.40;77.40;;;;;;5135504;27;20003;-96
2022/06/19 00:20:05;;;;;;;;;;;21.50;77.40;;;;;;5116942;27;20321;-96
2022/06/19 00:22:31;;;;;;;;;;;21.50;77.40;;;;;;5135768;27;19997;-96
2022/06/19 00:24:56;;;;;;;;;;;21.50;78.30;;;;;;5135146;27;20448;-96
2022/06/19 00:27:23;;;;;;;;;;;21.40;79.00;;;;;;5116781;27;19972;-96
2022/06/19 00:29:49;;;;;;;;;;;21.40;79.40;;;;;;5135368;27;19957;-96
2022/06/19 00:32:14;;;;;;;;;;;21.30;79.60;;;;;;5135112;27;20387;-96
2022/06/19 00:34:40;;;;;;;;;;;21.30;79.80;;;;;;5116697;27;20372;-96
2022/06/19 00:37:05;;;;;;;;;;;21.30;80.10;;;;;;5135594;27;20010;-96
2022/06/19 00:39:32;;;;;;;;;;;21.30;80.30;;;;;;5135012;27;19940;-96
2022/06/19 00:41:58;;;;;;;;;;;21.30;79.90;;;;;;5135121;27;19945;-96
2022/06/19 00:44:25;;;;;;;;;;;21.20;79.60;;;;;;5134974;27;20021;-96
2022/06/19 00:46:51;;;;;;;;;;;21.10;79.00;;;;;;5134946;27;19998;-96
2022/06/19 00:49:23;;;;;;;;;;;21.00;79.40;;;;;;5135460;28;20382;-96
2022/06/19 00:51:53;;;;;;;;;;;21.00;79.60;;;;;;5135117;28;20304;-96
2022/06/19 00:54:20;;;;;;;;;;;20.80;78.50;;;;;;5135107;28;19975;-95
2022/06/19 00:56:45;;;;;;;;;;;20.80;78.50;;;;;;5134768;28;19968;-96
2022/06/19 00:59:11;;;;;;;;;;;20.80;79.50;;;;;;5135373;28;19942;-95
2022/06/19 01:01:38;;;;;;;;;;;20.70;79.50;;;;;;5134802;28;19943;-96
2022/06/19 01:04:17;;;;;;;;;;;20.60;80.00;;;;;;5135364;28;19948;-96
2022/06/19 01:06:42;;;;;;;;;;;20.60;80.30;;;;;;5134773;28;19967;-96
2022/06/19 01:09:08;;;;;;;;;;;20.50;79.50;;;;;;5135063;28;19988;-96
2022/06/19 01:11:35;;;;;;;;;;;20.30;79.30;;;;;;5116337;28;19939;-96
2022/06/19 01:14:02;;;;;;;;;;;20.40;78.90;;;;;;5135313;28;19940;-96
2022/06/19 01:16:28;;;;;;;;;;;20.50;79.10;;;;;;5134533;28;20014;-96
2022/06/19 01:18:53;;;;;;;;;;;20.50;80.00;;;;;;5134938;28;19942;-96
2022/06/19 01:21:54;;;;;;;;;;;20.50;79.80;;;;;;5134672;28;19947;-96
2022/06/19 01:24:26;;;;;;;;;;;20.60;79.90;;;;;;5031602;28;19952;-96
2022/06/19 01:26:53;;;;;;;;;;;20.60;79.50;;;;;;5117297;28;19967;-96
2022/06/19 01:29:19;;;;;;;;;;;20.60;78.80;;;;;;5134791;28;20291;-96
2022/06/19 01:31:53;;;;;;;;;;;20.50;78.50;;;;;;5116087;28;20410;-96
2022/06/19 01:34:28;;;;;;;;;;;20.60;78.30;;;;;;5135013;28;20001;-96
2022/06/19 01:37:00;;;;;;;;;;;20.60;78.50;;;;;;5134773;28;19960;-96
2022/06/19 01:39:28;;;;;;;;;;;20.50;78.40;;;;;;5116168;28;19951;-95
2022/06/19 01:41:54;;;;;;;;;;;20.40;77.90;;;;;;5116042;28;20355;-96
2022/06/19 01:44:19;;;;;;;;;;;20.40;77.70;;;;;;5134749;28;19941;-96
2022/06/19 01:46:46;;;;;;;;;;;20.40;77.20;;;;;;5112564;28;20068;-96
2022/06/19 01:49:12;;;;;;;;;;;20.40;77.20;;;;;;5113571;28;19955;-96
2022/06/19 01:51:37;;;;;;;;;;;20.30;76.80;;;;;;5112590;28;20005;-96
2022/06/19 01:54:11;;;;;;;;;;;20.30;77.00;;;;;;5114345;28;19953;-96
2022/06/19 01:56:37;;;;;;;;;;;20.30;77.40;;;;;;5117494;28;20059;-96
2022/06/19 01:59:05;;;;;;;;;;;20.30;77.50;;;;;;5117758;28;20038;-96
2022/06/19 02:01:32;;;;;;;;;;;20.30;77.60;;;;;;5117733;28;19962;-96
2022/06/19 02:03:59;;;;;;;;;;;20.40;78.80;;;;;;5117958;27;19940;-96
2022/06/19 02:06:28;;;;;;;;;;;20.30;78.90;;;;;;5117311;28;20398;-96
2022/06/19 02:08:54;;;;;;;;;;;20.10;79.50;;;;;;5117607;28;19948;-96
2022/06/19 02:11:20;;;;;;;;;;;20.00;79.80;;;;;;5116053;28;19948;-96
2022/06/19 02:13:46;;;;;;;;;;;20.00;79.60;;;;;;5117487;28;19936;-96
2022/06/19 02:16:16;;;;;;;;;;;19.80;80.10;;;;;;5117388;28;20005;-96
2022/06/19 02:18:43;;;;;;;;;;;19.90;80.30;;;;;;5118062;28;19941;-96
2022/06/19 02:21:13;;;;;;;;;;;20.00;79.80;;;;;;5117005;28;19944;-95
2022/06/19 02:23:39;;;;;;;;;;;20.00;79.90;;;;;;5115684;28;19948;-95
2022/06/19 02:26:07;;;;;;;;;;;19.80;81.10;;;;;;5115535;28;20362;-96
2022/06/19 02:28:36;;;;;;;;;;;19.80;81.60;;;;;;5115596;28;19941;-96
2022/06/19 02:31:02;;;;;;;;;;;19.70;81.80;;;;;;5117079;28;19945;-96
2022/06/19 02:33:30;;;;;;;;;;;19.70;82.20;;;;;;5116157;28;19942;-96
2022/06/19 02:35:55;;;;;;;;;;;19.70;82.10;;;;;;5117313;28;19965;-96
2022/06/19 02:38:21;;;;;;;;;;;19.40;82.00;;;;;;5117009;28;19938;-96
2022/06/19 02:40:53;;;;;;;;;;;19.20;82.20;;;;;;5116932;28;20392;-96
2022/06/19 02:43:22;;;;;;;;;;;19.30;82.60;;;;;;5117403;28;20026;-96
2022/06/19 02:45:48;;;;;;;;;;;19.30;82.80;;;;;;5121283;27;19975;-96
2022/06/19 02:48:22;;;;;;;;;;;19.50;82.40;;;;;;5137353;27;19954;-96
2022/06/19 02:50:47;;;;;;;;;;;19.60;82.70;;;;;;5137331;27;19969;-96
2022/06/19 02:53:13;;;;;;;;;;;19.60;82.30;;;;;;5137563;27;20386;-96
2022/06/19 02:55:40;;;;;;;;;;;19.60;82.10;;;;;;5118252;27;19947;-96
2022/06/19 02:58:06;;;;;;;;;;;19.70;82.20;;;;;;5137156;27;19943;-96
2022/06/19 03:00:31;;;;;;;;;;;19.80;81.70;;;;;;5118472;27;19986;-96
2022/06/19 03:03:03;;;;;;;;;;;19.90;81.00;;;;;;5137423;27;20039;-96
2022/06/19 03:05:29;;;;;;;;;;;19.90;80.60;;;;;;5136765;27;19945;-96
2022/06/19 03:07:55;;;;;;;;;;;19.90;80.70;;;;;;5136968;27;19943;-96
2022/06/19 03:10:20;;;;;;;;;;;19.90;80.50;;;;;;5136594;27;20030;-96
2022/06/19 03:12:46;;;;;;;;;;;19.80;80.80;;;;;;5136880;27;20317;-96
2022/06/19 03:15:12;;;;;;;;;;;19.80;81.50;;;;;;5118180;27;19942;-96
2022/06/19 03:17:38;;;;;;;;;;;19.70;81.50;;;;;;5136614;27;19970;-96
2022/06/19 03:20:04;;;;;;;;;;;19.70;81.50;;;;;;5136405;27;19942;-96
2022/06/19 03:22:29;;;;;;;;;;;19.60;81.50;;;;;;5118219;27;20004;-96
2022/06/19 03:24:55;;;;;;;;;;;19.70;81.60;;;;;;5117897;27;19948;-96
2022/06/19 03:27:21;;;;;;;;;;;19.70;81.80;;;;;;5117874;27;19946;-96
2022/06/19 03:29:46;;;;;;;;;;;19.70;82.30;;;;;;5137143;27;19943;-96
2022/06/19 03:32:13;;;;;;;;;;;19.70;82.40;;;;;;5117721;27;19992;-95
2022/06/19 03:34:39;;;;;;;;;;;19.80;82.10;;;;;;5136669;27;19942;-96
2022/06/19 03:37:05;;;;;;;;;;;19.80;82.30;;;;;;5135999;27;19966;-95
2022/06/19 03:39:31;;;;;;;;;;;19.60;81.60;;;;;;5136650;27;20287;-96
2022/06/19 03:41:56;;;;;;;;;;;19.50;81.10;;;;;;5117785;27;19998;-96
2022/06/19 03:44:22;;;;;;;;;;;19.40;81.80;;;;;;5136258;27;19936;-95
2022/06/19 03:46:47;;;;;;;;;;;19.60;82.00;;;;;;5135974;27;20489;-96
2022/06/19 03:49:13;;;;;;;;;;;19.60;82.10;;;;;;5136289;27;20416;-96
2022/06/19 03:51:38;;;;;;;;;;;19.60;82.10;;;;;;5135809;27;20395;-96
2022/06/19 03:54:07;;;;;;;;;;;19.50;82.20;;;;;;5117279;27;20492;-96
2022/06/19 03:56:33;;;;;;;;;;;19.40;82.50;;;;;;5135730;27;19964;-96
2022/06/19 03:58:58;;;;;;;;;;;19.30;83.00;;;;;;5135970;27;19945;-95
2022/06/19 04:01:26;;;;;;;;;;;19.30;83.20;;;;;;5135623;27;19995;-96
2022/06/19 04:03:53;;;;;;;;;;;19.30;83.20;;;;;;5135869;27;19966;-96
2022/06/19 04:06:20;;;;;;;;;;;19.20;83.90;;;;;;5135497;27;19949;-96
2022/06/19 04:08:46;;;;;;;;;;;19.20;84.00;;;;;;5135777;27;19972;-96
2022/06/19 04:11:15;;;;;;;;;;;19.30;84.00;;;;;;5135438;27;19947;-96
2022/06/19 04:13:40;;;;;;;;;;;19.20;83.90;;;;;;5135691;27;19938;-96
2022/06/19 04:16:07;;;;;;;;;;;19.20;84.00;;;;;;5134880;27;19962;-96
2022/06/19 04:18:33;;;;;;;;;;;19.30;84.30;;;;;;5135650;27;20047;-96
2022/06/19 04:20:59;;;;;;;;;;;19.50;84.10;;;;;;5135617;27;20425;-96
2022/06/19 04:23:25;;;;;;;;;;;19.50;84.00;;;;;;5135552;27;20031;-96
2022/06/19 04:25:52;;;;;;;;;;;19.60;84.20;;;;;;5116715;27;19972;-96
2022/06/19 04:28:18;;;;;;;;;;;19.70;84.00;;;;;;5135493;27;19936;-96
2022/06/19 04:30:47;;;;;;;;;;;19.80;84.40;;;;;;5135140;27;19939;-96
2022/06/19 04:33:14;;;;;;;;;;;19.90;83.40;;;;;;5135413;27;19942;-96
2022/06/19 04:35:39;;;;;;;;;;;20.00;83.30;;;;;;5116609;27;19944;-96
2022/06/19 04:38:05;;;;;;;;;;;20.00;82.90;;;;;;5135675;27;20267;-96
2022/06/19 04:40:32;;;;;;;;;;;20.10;82.90;;;;;;5134963;27;19961;-96
2022/06/19 04:42:58;;;;;;;;;;;20.30;83.00;;;;;;5135285;27;19968;-96
2022/06/19 04:45:24;;;;;;;;;;;20.30;83.10;;;;;;5139898;22;19976;-95
2022/06/19 04:47:49;;;;;;;;;;;20.30;83.10;;;;;;5135552;28;19943;-96
2022/06/19 04:50:15;;;;;;;;;;;20.30;82.80;;;;;;5135222;28;19999;-95
2022/06/19 04:52:41;;;;;;;;;;;20.30;82.70;;;;;;5135226;28;19944;-96
2022/06/19 04:55:07;;;;;;;;;;;20.50;82.60;;;;;;5134732;28;19942;-95
2022/06/19 04:57:32;;;;;;;;;;;20.60;82.90;;;;;;5135066;28;19961;-96
2022/06/19 04:59:58;;;;;;;;;;;20.50;83.40;;;;;;5134891;28;20306;-96
2022/06/19 05:02:24;;;;;;;;;;;20.50;83.70;;;;;;5135131;28;19937;-95
2022/06/19 05:04:50;;;;;;;;;;;20.60;83.20;;;;;;5135076;28;20029;-96
2022/06/19 05:07:15;;;;;;;;;;;20.70;82.60;;;;;;5135413;28;19945;-96
2022/06/19 05:09:41;;;;;;;;;;;20.80;82.10;;;;;;5135049;28;19939;-96
2022/06/19 05:12:06;;;;;;;;;;;20.80;82.70;;;;;;5135377;28;19954;-96
2022/06/19 05:14:32;;;;;;;;;;;20.90;82.50;;;;;;5135030;28;20346;-96
2022/06/19 05:16:57;;;;;;;;;;;20.90;82.50;;;;;;5135186;28;20059;-96
2022/06/19 05:19:23;;;;;;;;;;;21.00;82.10;;;;;;5116816;28;19962;-96
2022/06/19 05:21:49;;;;;;;;;;;21.10;81.80;;;;;;5116267;28;19990;-96
2022/06/19 05:24:14;;;;;;;;;;;21.20;82.40;;;;;;5135193;28;19989;-96
2022/06/19 05:26:40;;;;;;;;;;;21.30;82.10;;;;;;5134608;28;19957;-96
2022/06/19 05:29:05;;;;;;;;;;;21.30;81.40;;;;;;5136910;27;19947;-96
2022/06/19 05:31:32;;;;;;;;;;;21.30;80.80;;;;;;5138870;27;19942;-96
2022/06/19 05:33:58;;;;;;;;;;;21.50;80.00;;;;;;5138833;27;19945;-96
2022/06/19 05:36:26;;;;;;;;;;;21.50;78.70;;;;;;5138448;27;19968;-96
2022/06/19 05:38:51;;;;;;;;;;;21.60;78.60;;;;;;5139047;27;20029;-96
2022/06/19 05:41:17;;;;;;;;;;;21.70;78.60;;;;;;5138702;27;20035;-96
2022/06/19 05:43:43;;;;;;;;;;;21.80;78.90;;;;;;5138686;27;19947;-96
2022/06/19 05:46:16;;;;;;;;;;;21.90;79.10;;;;;;5138305;27;19988;-96
2022/06/19 05:48:43;;;;;;;;;;;22.00;79.50;;;;;;5138481;27;19980;-96
2022/06/19 05:51:12;;;;;;;;;;;22.10;79.60;;;;;;5138141;27;20030;-96
2022/06/19 05:53:42;;;;;;;;;;;22.20;79.10;;;;;;5119730;27;19998;-96
2022/06/19 05:56:08;;;;;;;;;;;22.40;78.80;;;;;;5137928;27;20005;-96
2022/06/19 05:58:34;;;;;;;;;;;22.50;78.70;;;;;;5138284;27;19941;-96
2022/06/19 06:02:57;;;;;;;;;;;22.70;78.00;;;;;;5112427;27;20431;-96
2022/06/19 06:05:23;;;;;;;;;;;22.90;78.50;;;;;;5110866;28;20024;-96
2022/06/19 06:07:49;;;;;;;;;;;22.90;78.40;;;;;;5112393;28;19948;-96
2022/06/19 06:10:15;;;;;;;;;;;22.90;78.10;;;;;;5112078;28;19949;-96
2022/06/19 06:12:40;;;;;;;;;;;22.90;77.80;;;;;;5110541;28;19950;-96
2022/06/19 06:15:06;;;;;;;;;;;23.00;78.10;;;;;;5111860;28;20059;-96
2022/06/19 06:17:31;;;;;;;;;;;23.00;77.80;;;;;;5112229;28;19942;-95
2022/06/19 06:19:57;;;;;;;;;;;23.20;76.80;;;;;;5111579;28;19946;-96
2022/06/19 06:22:23;;;;;;;;;;;23.20;76.60;;;;;;5111847;28;20326;-96
2022/06/19 06:24:48;;;;;;;;;;;23.30;76.10;;;;;;5111551;28;19984;-95
2022/06/19 06:27:14;;;;;;;;;;;23.40;76.50;;;;;;5112413;28;19944;-96
2022/06/19 06:29:39;;;;;;;;;;;23.40;76.20;;;;;;5111511;28;19942;-96
2022/06/19 06:32:05;;;;;;;;;;;23.50;76.40;;;;;;5110367;28;20372;-96
2022/06/19 06:34:30;;;;;;;;;;;23.50;76.60;;;;;;5110068;28;19945;-96
2022/06/19 06:36:56;;;;;;;;;;;23.60;76.30;;;;;;5110139;28;20002;-96
2022/06/19 06:39:21;;;;;;;;;;;23.70;75.70;;;;;;5111521;28;20281;-96
2022/06/19 06:41:47;;;;;;;;;;;23.70;75.40;;;;;;5111081;28;20365;-96
2022/06/19 06:44:13;;;;;;;;;;;23.80;75.90;;;;;;5111552;28;20321;-96
2022/06/19 06:46:39;;;;;;;;;;;23.90;75.20;;;;;;5111030;28;19938;-95
2022/06/19 06:49:04;;;;;;;;;;;24.00;74.90;;;;;;5111275;28;20393;-96
2022/06/19 06:51:31;;;;;;;;;;;24.10;73.50;;;;;;5110946;28;19949;-96
2022/06/19 06:56:05;;;;;;;;;;;24.20;73.20;;;;;;5111717;27;20433;-96
2022/06/19 06:58:31;;;;;;;;;;;24.40;74.70;;;;;;5112112;28;19981;-96
2022/06/19 07:00:57;;;;;;;;;;;24.50;74.30;;;;;;5112052;28;19940;-96
2022/06/19 07:03:22;;;;;;;;;;;24.50;73.90;;;;;;5112036;28;20314;-96
2022/06/19 07:05:48;;;;;;;;;;;24.50;72.90;;;;;;5111996;28;20297;-95
2022/06/19 07:08:13;;;;;;;;;;;24.60;72.20;;;;;;5112210;28;19940;-96
2022/06/19 07:10:39;;;;;;;;;;;24.60;72.70;;;;;;5110314;28;20045;-95
2022/06/19 07:13:04;;;;;;;;;;;24.70;72.20;;;;;;5112374;28;19944;-96
2022/06/19 07:15:30;;;;;;;;;;;24.70;72.40;;;;;;5110120;28;20017;-96
2022/06/19 07:17:56;;;;;;;;;;;24.80;70.30;;;;;;5145180;27;19946;-96
2022/06/19 07:20:21;;;;;;;;;;;24.90;69.30;;;;;;5110125;28;20087;-96
2022/06/19 07:22:47;;;;;;;;;;;25.00;69.40;;;;;;5111637;28;20408;-96
2022/06/19 07:25:19;;;;;;;;;;;25.00;69.00;;;;;;5111220;28;19997;-96
2022/06/19 07:27:45;;;;;;;;;;;25.10;69.00;;;;;;5109981;28;20035;-95
2022/06/19 07:30:15;;;;;;;;;;;25.20;69.70;;;;;;5111570;28;19980;-96
2022/06/19 07:32:41;;;;;;;;;;;25.30;68.70;;;;;;5111525;28;19971;-96
2022/06/19 07:35:07;;;;;;;;;;;25.30;67.90;;;;;;5111328;28;20504;-96
2022/06/19 07:37:32;;;;;;;;;;;25.30;67.00;;;;;;5111347;28;20346;-96
2022/06/19 07:39:58;;;;;;;;;;;25.50;68.30;;;;;;5111652;28;20035;-96
2022/06/19 07:42:23;;;;;;;;;;;25.50;68.00;;;;;;5111168;28;19976;-96
2022/06/19 07:44:49;;;;;;;;;;;25.60;67.70;;;;;;5111269;28;19942;-96
2022/06/19 07:50:12;;;;;;;;;;;25.60;68.40;;;;;;5111188;28;20033;-96
2022/06/19 07:52:39;;;;;;;;;;;25.70;65.90;;;;;;5111370;28;19944;-96
2022/06/19 07:55:42;;;;;;;;;;;25.70;66.00;;;;;;5111692;27;19971;-96
2022/06/19 07:58:08;;;;;;;;;;;25.90;63.50;;;;;;5112145;28;20370;-96
2022/06/19 08:00:35;;;;;;;;;;;26.00;64.50;;;;;;5112069;28;19941;-96
2022/06/19 08:03:00;;;;;;;;;;;26.10;66.20;;;;;;5112285;28;19944;-96
2022/06/19 08:05:27;;;;;;;;;;;26.20;62.00;;;;;;5111971;28;19948;-96
2022/06/19 08:07:53;;;;;;;;;;;26.20;60.50;;;;;;5112227;28;19971;-96
2022/06/19 08:10:23;;;;;;;;;;;26.30;62.60;;;;;;5110280;28;19945;-96
2022/06/19 08:12:50;;;;;;;;;;;26.40;59.20;;;;;;5112109;28;19953;-96
2022/06/19 08:15:16;;;;;;;;;;;26.50;59.20;;;;;;5110416;28;19972;-96
2022/06/19 08:17:41;;;;;;;;;;;26.50;57.60;;;;;;5112013;28;20299;-96
2022/06/19 08:20:07;;;;;;;;;;;26.60;56.80;;;;;;5110096;28;19954;-96
2022/06/19 08:22:33;;;;;;;;;;;26.70;58.30;;;;;;5110015;28;19946;-96
2022/06/19 08:24:58;;;;;;;;;;;26.70;57.10;;;;;;5111503;28;19942;-96
2022/06/19 08:27:24;;;;;;;;;;;26.80;56.60;;;;;;5111544;28;20419;-96
2022/06/19 08:29:49;;;;;;;;;;;26.80;56.70;;;;;;5111214;28;19938;-96
2022/06/19 08:32:15;;;;;;;;;;;26.90;56.30;;;;;;5111996;28;19949;-95
2022/06/19 08:34:41;;;;;;;;;;;27.00;55.50;;;;;;5111035;28;19960;-96
2022/06/19 08:37:08;;;;;;;;;;;27.10;57.30;;;;;;5111744;28;19947;-96
2022/06/19 08:39:33;;;;;;;;;;;27.20;56.00;;;;;;5111011;28;19942;-96
2022/06/19 08:42:28;;;;;;;;;;;27.30;49.40;;;;;;5109861;28;19942;-96
2022/06/19 08:44:59;;;;;;;;;;;27.40;46.20;;;;;;5111239;28;19981;-96
2022/06/19 08:47:34;;;;;;;;;;;27.50;48.50;;;;;;5111664;28;19939;-96
2022/06/19 08:50:08;;;;;;;;;;;27.50;49.40;;;;;;5111107;28;20038;-96
2022/06/19 08:52:59;;;;;;;;;;;27.60;47.10;;;;;;5109508;28;19947;-96
2022/06/19 08:55:44;;;;;;;;;;;27.70;46.30;;;;;;5110367;28;19947;-96
2022/06/19 08:58:10;;;;;;;;;;;27.80;44.90;;;;;;5111231;28;19941;-96
2022/06/19 09:00:58;;;;;;;;;;;28.00;44.40;;;;;;5110894;28;20036;-96
2022/06/19 09:05:36;;;;;;;;;;;28.10;45.20;;;;;;5090615;28;20403;-96
2022/06/19 09:06:23;;;;;;;;;;;28.20;48.60;;;;;;5101090;28;19942;-96
2022/06/19 09:09:04;;;;;;;;;;;28.20;44.70;;;;;;5100210;28;20390;-96
2022/06/19 09:11:30;;;;;;;;;;;28.20;43.50;;;;;;5096069;28;20391;-96
2022/06/19 09:13:55;;;;;;;;;;;28.20;41.30;;;;;;5095994;28;19992;-96
2022/06/19 09:16:28;;;;;;;;;;;28.30;43.20;;;;;;5097257;28;19945;-95
2022/06/19 09:19:02;;;;;;;;;;;28.30;42.30;;;;;;5096764;28;19951;-96
2022/06/19 09:21:35;;;;;;;;;;;28.30;42.50;;;;;;5097399;28;19941;-96
2022/06/19 09:24:06;;;;;;;;;;;28.40;44.00;;;;;;5096699;28;19938;-96
2022/06/19 09:26:34;;;;;;;;;;;28.50;43.00;;;;;;5097043;28;20016;-96
2022/06/19 09:29:06;;;;;;;;;;;28.50;41.70;;;;;;5096522;28;19940;-96
2022/06/19 09:31:37;;;;;;;;;;;28.60;44.40;;;;;;5096816;28;19946;-96
2022/06/19 09:34:05;;;;;;;;;;;28.60;41.90;;;;;;5096637;28;19974;-96
2022/06/19 09:36:38;;;;;;;;;;;28.70;42.60;;;;;;5096701;28;19938;-96
2022/06/19 09:39:07;;;;;;;;;;;28.70;41.60;;;;;;5095099;28;19946;-96
2022/06/19 09:41:35;;;;;;;;;;;28.80;40.50;;;;;;5095047;28;19992;-96
2022/06/19 09:44:11;;;;;;;;;;;28.80;39.10;;;;;;5096504;28;20038;-96
2022/06/19 09:46:46;;;;;;;;;;;28.90;39.90;;;;;;5096242;28;19943;-96
2022/06/19 09:49:16;;;;;;;;;;;28.90;41.20;;;;;;5096718;28;19938;-96
2022/06/19 09:51:49;;;;;;;;;;;29.00;43.80;;;;;;5096345;28;20393;-96
2022/06/19 09:54:17;;;;;;;;;;;29.00;40.50;;;;;;5095859;28;19983;-96
2022/06/19 09:59:23;;;;;;;;;;;29.20;44.30;;;;;;5092046;28;19949;-96
2022/06/19 10:01:56;;;;;;;;;;;29.40;44.00;;;;;;5090200;28;20458;-96
2022/06/19 10:04:30;;;;;;;;;;;29.50;41.80;;;;;;5092050;28;20390;-96
2022/06/19 10:06:57;;;;;;;;;;;29.60;41.10;;;;;;5091380;28;19938;-96
2022/06/19 10:09:30;;;;;;;;;;;29.70;40.70;;;;;;5091904;28;19950;-96
2022/06/19 10:11:58;;;;;;;;;;;29.70;39.70;;;;;;5091277;28;19941;-96
2022/06/19 10:14:33;;;;;;;;;;;29.70;40.80;;;;;;5091533;28;19944;-96
2022/06/19 10:17:04;;;;;;;;;;;29.70;39.10;;;;;;5089896;28;20298;-96
2022/06/19 10:19:50;;;;;;;;;;;29.70;38.60;;;;;;5091448;28;19943;-96
2022/06/19 10:22:15;;;;;;;;;;;29.80;40.70;;;;;;5091114;28;19937;-96
2022/06/19 10:24:44;;;;;;;;;;;29.80;41.00;;;;;;5089753;28;20058;-96
2022/06/19 10:27:16;;;;;;;;;;;29.90;40.90;;;;;;5089652;28;20026;-96
2022/06/19 10:29:44;;;;;;;;;;;29.80;39.10;;;;;;5091337;28;19986;-95
2022/06/19 10:32:31;;;;;;;;;;;29.90;41.20;;;;;;5090917;28;19985;-96
2022/06/19 10:34:59;;;;;;;;;;;30.10;41.70;;;;;;5090499;28;19945;-96
2022/06/19 10:37:24;;;;;;;;;;;30.20;40.20;;;;;;5090709;28;19959;-96
2022/06/19 10:40:09;;;;;;;;;;;30.20;38.80;;;;;;5091054;28;19965;-96
2022/06/19 10:42:56;;;;;;;;;;;30.20;38.90;;;;;;5089395;28;19948;-96
2022/06/19 10:45:37;;;;;;;;;;;30.30;39.10;;;;;;5090868;28;19961;-96
2022/06/19 10:48:21;;;;;;;;;;;30.30;41.00;;;;;;5090882;28;19944;-96
2022/06/19 10:50:49;;;;;;;;;;;30.50;38.40;;;;;;5090815;28;19938;-96
2022/06/19 10:53:33;;;;;;;;;;;30.60;36.70;;;;;;5090779;28;20026;-96
2022/06/19 10:56:01;;;;;;;;;;;30.70;37.60;;;;;;5090357;28;20028;-96
2022/06/19 10:58:29;;;;;;;;;;;30.90;39.50;;;;;;5090376;28;19974;-96
2022/06/19 11:00:56;;;;;;;;;;;31.10;38.90;;;;;;5090578;28;19978;-96
2022/06/19 11:06:20;;;;;;;;;;;31.20;35.80;;;;;;5090908;28;20437;-96
2022/06/19 11:08:49;;;;;;;;;;;31.30;34.40;;;;;;5086634;28;19971;-95
2022/06/19 11:11:16;;;;;;;;;;;31.40;34.90;;;;;;5077021;28;19935;-96
2022/06/19 11:13:54;;;;;;;;;;;31.50;36.90;;;;;;5075449;28;19945;-95
2022/06/19 11:16:20;;;;;;;;;;;31.50;36.30;;;;;;5076895;28;19944;-96
2022/06/19 11:18:49;;;;;;;;;;;31.60;36.30;;;;;;5076771;28;20355;-96
2022/06/19 11:21:20;;;;;;;;;;;31.60;38.10;;;;;;5076776;28;20029;-96
2022/06/19 11:23:48;;;;;;;;;;;31.40;34.30;;;;;;5076746;28;19946;-96
2022/06/19 11:26:16;;;;;;;;;;;31.30;34.60;;;;;;5076480;28;19968;-96
2022/06/19 11:28:42;;;;;;;;;;;31.40;35.10;;;;;;5076688;28;20167;-96
2022/06/19 11:31:13;;;;;;;;;;;31.50;36.20;;;;;;5076614;28;19984;-95
2022/06/19 11:33:39;;;;;;;;;;;31.70;35.20;;;;;;5076836;28;20029;-96
2022/06/19 11:36:08;;;;;;;;;;;31.80;33.40;;;;;;5074930;28;19941;-96
2022/06/19 11:38:36;;;;;;;;;;;32.00;33.30;;;;;;5076661;28;19962;-96
2022/06/19 11:41:13;;;;;;;;;;;32.20;32.10;;;;;;5074866;28;20428;-96
2022/06/19 11:43:39;;;;;;;;;;;32.40;33.30;;;;;;5076672;28;20029;-95
2022/06/19 11:46:06;;;;;;;;;;;32.70;33.50;;;;;;5076040;28;19986;-96
2022/06/19 11:48:32;;;;;;;;;;;32.80;33.70;;;;;;5076322;28;19956;-96
2022/06/19 11:50:58;;;;;;;;;;;32.90;34.60;;;;;;5075262;28;19975;-96
2022/06/19 11:53:25;;;;;;;;;;;32.90;33.20;;;;;;5076518;28;20405;-96
2022/06/19 11:55:52;;;;;;;;;;;33.00;32.60;;;;;;5074424;28;20434;-96
2022/06/19 11:58:35;;;;;;;;;;;33.00;32.10;;;;;;5076504;28;20017;-96
2022/06/19 12:01:09;;;;;;;;;;;32.90;32.60;;;;;;5075768;28;19945;-96
2022/06/19 12:03:44;;;;;;;;;;;33.00;32.90;;;;;;5075979;28;19946;-96
2022/06/19 12:06:10;;;;;;;;;;;33.20;32.30;;;;;;5075950;28;19948;-96
2022/06/19 12:08:59;;;;;;;;;;;33.70;31.70;;;;;;5075879;28;20037;-96
2022/06/19 12:11:34;;;;;;;;;;;33.90;30.20;;;;;;5072428;28;19955;-96
2022/06/19 12:13:59;;;;;;;;;;;34.30;30.80;;;;;;5075736;28;20323;-96
2022/06/19 12:16:25;;;;;;;;;;;34.60;30.70;;;;;;5075437;28;20019;-96
2022/06/19 12:18:50;;;;;;;;;;;35.00;28.30;;;;;;5074102;28;20380;-96
2022/06/19 12:21:27;;;;;;;;;;;35.50;29.00;;;;;;5074944;28;19945;-96
2022/06/19 12:23:57;;;;;;;;;;;36.00;27.70;;;;;;5075298;28;20238;-96
2022/06/19 12:26:27;;;;;;;;;;;36.40;27.40;;;;;;5075230;28;20033;-96
2022/06/19 12:28:54;;;;;;;;;;;36.70;27.20;;;;;;5073862;28;19969;-96
2022/06/19 12:31:28;;;;;;;;;;;36.30;27.70;;;;;;5075478;28;19965;-96
2022/06/19 12:33:57;;;;;;;;;;;36.10;29.10;;;;;;5075307;28;20301;-95
2022/06/19 12:36:32;;;;;;;;;;;35.40;29.50;;;;;;5075034;28;20023;-96
2022/06/19 12:38:58;;;;;;;;;;;35.60;30.20;;;;;;5073685;28;19996;-96
2022/06/19 12:41:41;;;;;;;;;;;35.40;29.00;;;;;;5075211;28;19941;-96
2022/06/19 12:44:06;;;;;;;;;;;35.50;30.90;;;;;;5074858;28;19937;-96
2022/06/19 12:46:43;;;;;;;;;;;35.90;31.00;;;;;;5074903;28;20049;-96
2022/06/19 12:49:12;;;;;;;;;;;36.10;29.00;;;;;;5074989;28;19958;-96
2022/06/19 12:51:47;;;;;;;;;;;36.50;28.20;;;;;;5073465;28;19948;-96
2022/06/19 12:55:24;;;;;;;;;;;36.70;28.50;;;;;;5111835;27;19964;-95
2022/06/19 12:57:50;;;;;;;;;;;37.30;25.90;;;;;;5112392;28;19981;-96
2022/06/19 13:00:24;;;;;;;;;;;37.70;27.70;;;;;;5111862;28;19938;-95
2022/06/19 13:03:09;;;;;;;;;;;37.40;25.90;;;;;;5111975;28;19943;-96
2022/06/19 13:05:35;;;;;;;;;;;37.80;26.10;;;;;;5112059;28;19945;-95
2022/06/19 13:08:13;;;;;;;;;;;37.60;26.30;;;;;;5111941;28;19975;-96
2022/06/19 13:10:44;;;;;;;;;;;37.90;26.10;;;;;;5110355;28;20419;-95
2022/06/19 13:13:29;;;;;;;;;;;38.60;24.20;;;;;;5112045;28;19965;-95
2022/06/19 13:15:58;;;;;;;;;;;38.80;25.10;;;;;;5111782;28;19940;-96
2022/06/19 13:18:24;;;;;;;;;;;39.90;22.60;;;;;;5111725;28;19975;-96
2022/06/19 13:21:12;;;;;;;;;;;40.00;22.80;;;;;;5111368;28;20022;-96
2022/06/19 13:23:46;;;;;;;;;;;41.00;22.80;;;;;;5112084;27;20080;-96
2022/06/19 13:27:10;;;;;;;;;;;42.20;20.80;;;;;;5111555;28;20424;-96
2022/06/19 13:29:04;;;;;;;;;;;42.70;20.30;;;;;;5111121;28;19971;-96
2022/06/19 13:31:33;;;;;;;;;;;43.10;20.10;;;;;;5111822;28;19939;-96
2022/06/19 13:34:01;;;;;;;;;;;43.00;19.50;;;;;;5111170;28;20355;-95
2022/06/19 13:36:45;;;;;;;;;;;43.30;24.50;;;;;;5111419;28;20044;-96
2022/06/19 13:39:29;;;;;;;;;;;43.00;20.80;;;;;;5111104;28;19978;-95
2022/06/19 13:42:14;;;;;;;;;;;42.60;24.10;;;;;;5109782;28;20398;-96
2022/06/19 13:44:49;;;;;;;;;;;43.20;23.40;;;;;;5111438;28;20009;-96
2022/06/19 13:47:17;;;;;;;;;;;42.50;24.40;;;;;;5110904;28;19943;-96
2022/06/19 13:49:42;;;;;;;;;;;42.30;24.80;;;;;;5111423;28;19978;-96
2022/06/19 13:52:18;;;;;;;;;;;42.20;24.60;;;;;;5111107;28;19944;-96
2022/06/19 13:54:52;;;;;;;;;;;41.70;23.30;;;;;;5110497;28;20409;-95
2022/06/19 13:57:20;;;;;;;;;;;41.60;25.40;;;;;;5111287;28;19941;-96
2022/06/19 13:59:57;;;;;;;;;;;41.60;26.10;;;;;;5110636;28;19976;-96
2022/06/19 14:02:32;;;;;;;;;;;41.80;25.30;;;;;;5110906;28;19938;-96
2022/06/19 14:05:14;;;;;;;;;;;41.60;25.00;;;;;;5106276;28;19972;-96
2022/06/19 14:07:40;;;;;;;;;;;41.40;27.00;;;;;;5097492;28;19941;-96
2022/06/19 14:10:11;;;;;;;;;;;41.10;26.40;;;;;;5096892;28;19989;-96
2022/06/19 14:12:43;;;;;;;;;;;41.70;26.10;;;;;;5095533;28;19944;-96
2022/06/19 14:15:12;;;;;;;;;;;42.10;25.90;;;;;;5097120;28;19982;-96
2022/06/19 14:17:42;;;;;;;;;;;42.50;24.00;;;;;;5097285;28;20104;-96
2022/06/19 14:20:17;;;;;;;;;;;42.60;24.60;;;;;;5096695;28;20065;-96
2022/06/19 14:22:59;;;;;;;;;;;42.80;24.40;;;;;;5096893;28;19939;-95
2022/06/19 14:25:30;;;;;;;;;;;42.80;26.00;;;;;;5096796;28;20085;-96
2022/06/19 14:28:07;;;;;;;;;;;42.60;24.60;;;;;;5097082;28;19947;-96
2022/06/19 14:30:35;;;;;;;;;;;42.50;25.20;;;;;;5096452;28;19946;-96
2022/06/19 14:33:02;;;;;;;;;;;42.50;25.00;;;;;;5095170;28;19988;-95
2022/06/19 14:35:32;;;;;;;;;;;42.70;25.10;;;;;;5097014;28;19992;-95
2022/06/19 14:38:00;;;;;;;;;;;42.40;24.40;;;;;;5096654;28;20007;-96
2022/06/19 14:40:31;;;;;;;;;;;42.60;25.20;;;;;;5096610;28;20379;-95